createdAt,value
2022-09-07T00:00:25.453Z,1.3
2022-09-07T00:06:48.542Z,0.1
2022-09-07T00:13:08.499Z,0.1
2022-09-07T00:19:31.499Z,1.3
2022-09-07T00:25:54.056Z,1.3
2022-09-07T00:32:14.460Z,1.2
2022-09-07T00:38:34.567Z,1.2
2022-09-07T00:44:57.464Z,0.6
2022-09-07T00:51:17.486Z,0.6
2022-09-07T00:57:40.494Z,1.3
2022-09-07T01:04:00.468Z,1.3
2022-09-07T01:10:23.534Z,1.3
2022-09-07T01:16:43.509Z,1.3
2022-09-07T01:23:06.535Z,1.3
2022-09-07T01:29:26.478Z,1.3
2022-09-07T01:35:49.457Z,0.9
2022-09-07T01:42:09.522Z,0.9
2022-09-07T01:48:32.500Z,1.9
2022-09-07T01:54:52.486Z,1.9
2022-09-07T02:01:15.569Z,1.8
2022-09-07T02:07:35.456Z,1.8
2022-09-07T02:13:58.539Z,1.7
2022-09-07T02:20:18.452Z,1.7
2022-09-07T02:26:41.533Z,2.1
2022-09-07T02:33:01.478Z,2.1
2022-09-07T02:39:24.467Z,1.3
2022-09-07T02:45:44.501Z,1.3
2022-09-07T02:52:07.465Z,0.9
2022-09-07T02:58:27.489Z,0.9
2022-09-07T03:04:50.523Z,0.7
2022-09-07T03:11:10.498Z,0.7
2022-09-07T03:17:33.536Z,1
2022-09-07T03:23:53.461Z,1
2022-09-07T03:30:16.522Z,0.5
2022-09-07T03:36:36.482Z,0.5
2022-09-07T03:42:59.515Z,0.3
2022-09-07T03:49:19.486Z,0.3
2022-09-07T03:55:42.478Z,0.8
2022-09-07T04:11:13.435Z,1
2022-09-07T04:17:33.464Z,1
2022-09-07T04:23:56.461Z,3.7
2022-09-07T04:30:16.522Z,3.7
2022-09-07T04:36:39.451Z,3.7
2022-09-07T04:42:59.500Z,3.7
2022-09-07T04:49:22.495Z,3
2022-09-07T04:55:42.484Z,3
2022-09-07T05:02:05.546Z,1.3
2022-09-07T05:08:25.452Z,1.3
2022-09-07T05:14:48.510Z,1.6
2022-09-07T05:21:08.455Z,1.6
2022-09-07T05:27:31.493Z,2.6
2022-09-07T05:40:14.520Z,3.8
2022-09-07T05:46:34.508Z,3.8
2022-09-07T05:52:57.470Z,2.3
2022-09-07T05:59:17.500Z,2.3
2022-09-07T06:05:40.531Z,2.2
2022-09-07T06:12:00.459Z,2.2
2022-09-07T06:18:23.499Z,1.7
2022-09-07T06:24:43.460Z,1.7
2022-09-07T06:31:06.472Z,1.2
2022-09-07T06:37:26.516Z,1.2
2022-09-07T06:43:49.468Z,3.8
2022-09-07T06:50:09.731Z,3.8
2022-09-07T06:56:32.479Z,3.1
2022-09-07T07:02:52.553Z,3.1
2022-09-07T07:09:15.503Z,2.7
2022-09-07T07:15:35.494Z,2.7
2022-09-07T07:22:18.525Z,7.4
2022-09-07T07:34:42.517Z,4.1
2022-09-07T07:47:25.489Z,2.4
2022-09-07T07:53:45.581Z,2.4
2022-09-07T08:00:08.481Z,3.6
2022-09-07T08:06:28.547Z,3.6
2022-09-07T08:12:51.563Z,1.2
2022-09-07T08:19:11.474Z,1.2
2022-09-07T08:25:34.532Z,2.1
2022-09-07T08:31:54.610Z,2.1
2022-09-07T08:38:20.910Z,1.4
2022-09-07T08:44:37.500Z,1.4
2022-09-07T08:51:00.510Z,1.2
2022-09-07T08:57:20.966Z,1.2
2022-09-07T09:10:03.536Z,1.2
2022-09-07T09:16:26.536Z,1.4
2022-09-07T09:22:46.493Z,1.4
2022-09-07T09:29:09.567Z,1.2
2022-09-07T09:52:51.914Z,0.8
2022-09-07T10:05:33.503Z,0.7
2022-09-07T10:12:09.045Z,0.7
2022-09-07T10:18:16.496Z,1
2022-09-07T10:24:36.529Z,1
2022-09-07T10:30:59.535Z,0.3
2022-09-07T10:37:19.497Z,0.3
2022-09-07T10:43:42.489Z,0.7
2022-09-07T10:56:25.530Z,1
2022-09-07T11:03:24.747Z,1
2022-09-07T11:09:16.833Z,0.5
2022-09-07T11:15:28.622Z,0.5
2022-09-07T11:21:58.739Z,0.9
2022-09-07T11:28:11.540Z,0.9
2022-09-07T11:34:34.479Z,1.2
2022-09-07T11:40:54.529Z,1.2
2022-09-07T11:47:18.023Z,1.1
2022-09-07T11:53:37.498Z,1.1
2022-09-07T12:00:00.790Z,1.1
2022-09-07T12:06:20.556Z,1.1
2022-09-07T12:12:43.532Z,0.6
2022-09-07T12:19:03.477Z,0.6
2022-09-07T12:25:26.600Z,0.7
2022-09-07T12:31:57.498Z,0.7
2022-09-07T12:38:09.517Z,0.6
2022-09-07T12:44:29.549Z,0.6
2022-09-07T12:50:52.516Z,0.9
2022-09-07T12:57:42.394Z,0.9
2022-09-07T13:03:51.694Z,1
2022-09-07T13:09:55.468Z,1
2022-09-07T13:16:18.519Z,0.5
2022-09-07T13:22:38.517Z,0.5
2022-09-07T13:29:01.460Z,1.5
2022-09-07T13:35:21.622Z,1.5
2022-09-07T13:41:44.520Z,0.7
2022-09-07T13:48:04.501Z,0.7
2022-09-07T13:54:27.470Z,0.5
2022-09-07T14:00:47.497Z,0.5
2022-09-07T14:07:10.553Z,1.4
2022-09-07T14:13:30.622Z,1.4
2022-09-07T14:19:53.538Z,1.1
2022-09-07T14:26:17.429Z,1.1
2022-09-07T14:32:36.491Z,1.3
2022-09-07T14:39:04.150Z,1.3
2022-09-07T14:45:19.472Z,0.7
2022-09-07T14:51:39.500Z,0.7
2022-09-07T14:58:06.989Z,0.4
2022-09-07T15:04:22.654Z,0.4
2022-09-07T15:11:32.711Z,1.2
2022-09-07T15:34:09.450Z,0.8
2022-09-07T15:40:29.519Z,0.8
2022-09-07T15:59:35.492Z,1
2022-09-07T16:05:55.512Z,1
2022-09-07T16:18:39.006Z,0.2
2022-09-07T16:25:01.479Z,0.3
2022-09-07T16:31:21.551Z,0.3
2022-09-07T16:44:04.692Z,0.2
2022-09-07T16:50:27.539Z,0.3
2022-09-07T16:56:47.485Z,0.3
2022-09-07T17:03:10.521Z,0.2
2022-09-07T17:09:30.500Z,0.2
2022-09-07T17:15:53.614Z,1.1
2022-09-07T17:22:13.475Z,1.1
2022-09-07T17:28:36.756Z,1.6
2022-09-07T17:34:56.481Z,1.6
2022-09-07T17:41:19.477Z,1.1
2022-09-07T17:47:39.515Z,1.1
2022-09-07T17:54:02.469Z,0.3
2022-09-07T18:00:22.528Z,0.3
2022-09-07T18:06:45.571Z,0.4
2022-09-07T18:13:05.506Z,0.4
2022-09-07T18:19:28.517Z,0.5
2022-09-07T18:25:48.492Z,0.5
2022-09-07T18:32:11.869Z,0.6
2022-09-07T18:38:31.466Z,0.6
2022-09-07T18:51:14.457Z,0.4
2022-09-07T18:57:37.528Z,0.9
2022-09-07T19:03:57.496Z,0.9
2022-09-07T19:10:20.488Z,0.9
2022-09-07T19:16:40.514Z,0.9
2022-09-07T19:23:03.488Z,0.5
2022-09-07T19:29:23.607Z,0.5
2022-09-07T19:35:46.530Z,0.4
2022-09-07T19:42:06.799Z,0.4
2022-09-07T19:48:29.452Z,0.5
2022-09-07T19:54:49.726Z,0.5
2022-09-07T20:01:12.595Z,1.7
2022-09-07T20:07:32.510Z,1.7
2022-09-07T20:13:55.478Z,0.5
2022-09-07T20:20:15.472Z,0.5
2022-09-07T20:26:38.497Z,0.4
2022-09-07T20:32:58.590Z,0.4
2022-09-07T20:39:21.546Z,0.2
2022-09-07T20:45:41.463Z,0.2
2022-09-07T21:01:16.512Z,1
2022-09-07T21:07:36.479Z,1
2022-09-07T21:13:59.466Z,0.1
2022-09-07T21:20:19.565Z,0.1
2022-09-07T21:26:42.466Z,0.2
2022-09-07T21:33:03.274Z,0.2
2022-09-07T21:39:25.525Z,0.7
2022-09-07T21:45:45.473Z,0.7
2022-09-07T21:52:08.551Z,1.2
2022-09-07T21:58:28.501Z,1.2
2022-09-07T22:22:46.487Z,1.6
2022-09-07T22:29:06.512Z,1.6
2022-09-07T22:35:29.495Z,1.6
2022-09-07T22:41:49.512Z,1.6
2022-09-07T22:48:12.492Z,0.3
2022-09-07T22:54:32.450Z,0.3
2022-09-07T23:00:55.547Z,0.6
2022-09-07T23:07:15.498Z,0.6
2022-09-07T23:13:38.482Z,1.1
2022-09-07T23:19:58.492Z,1.1
2022-09-07T23:26:21.526Z,0.8
2022-09-07T23:32:41.503Z,0.8
2022-09-07T23:39:04.494Z,1.3
2022-09-07T23:45:24.462Z,1.3
2022-09-07T23:51:47.541Z,1
2022-09-07T23:58:07.481Z,1
